sensor_id;sensor_type;location;lat;lon;timestamp;pressure;altitude;pressure_sealevel;temperature;humidity
7075;BME280;3578;51.568;6.932;2022-12-15T00:01:09;52598.81;;;-144.14;100.00
7075;BME280;3578;51.568;6.932;2022-12-15T00:03:54;52584.78;;;-144.14;100.00
7075;BME280;3578;51.568;6.932;2022-12-15T00:06:38;52614.84;;;-144.14;100.00
7075;BME280;3578;51.568;6.932;2022-12-15T00:09:23;52606.81;;;-144.14;100.00
7075;BME280;3578;51.568;6.932;2022-12-15T00:12:08;52628.84;;;-144.14;100.00
7075;BME280;3578;51.568;6.932;2022-12-15T00:14:52;52624.84;;;-144.14;100.00
7075;BME280;3578;51.568;6.932;2022-12-15T00:17:38;52636.88;;;-144.14;100.00
7075;BME280;3578;51.568;6.932;2022-12-15T00:20:23;52636.88;;;-144.14;100.00
7075;BME280;3578;51.568;6.932;2022-12-15T00:23:08;52608.81;;;-144.14;100.00
7075;BME280;3578;51.568;6.932;2022-12-15T00:25:52;52652.91;;;-144.14;100.00
7075;BME280;3578;51.568;6.932;2022-12-15T00:28:37;52620.84;;;-144.14;100.00
7075;BME280;3578;51.568;6.932;2022-12-15T00:31:22;52620.84;;;-144.14;100.00
7075;BME280;3578;51.568;6.932;2022-12-15T00:34:08;52678.94;;;-144.14;100.00
7075;BME280;3578;51.568;6.932;2022-12-15T00:36:53;52624.84;;;-144.14;100.00
7075;BME280;3578;51.568;6.932;2022-12-15T00:39:37;52676.94;;;-144.14;100.00
7075;BME280;3578;51.568;6.932;2022-12-15T00:42:05;52644.88;;;-144.14;100.00
7075;BME280;3578;51.568;6.932;2022-12-15T00:44:32;52668.94;;;-144.14;100.00
7075;BME280;3578;51.568;6.932;2022-12-15T00:46:59;52680.97;;;-144.14;100.00
7075;BME280;3578;51.568;6.932;2022-12-15T00:49:28;52686.97;;;-144.14;100.00
7075;BME280;3578;51.568;6.932;2022-12-15T00:52:16;52672.94;;;-144.14;99.78
7075;BME280;3578;51.568;6.932;2022-12-15T00:55:00;52684.97;;;-144.14;99.52
7075;BME280;3578;51.568;6.932;2022-12-15T00:57:45;52694.97;;;-144.14;99.44
7075;BME280;3578;51.568;6.932;2022-12-15T01:00:29;52692.97;;;-144.14;99.26
7075;BME280;3578;51.568;6.932;2022-12-15T01:03:20;52652.91;;;-144.14;99.31
7075;BME280;3578;51.568;6.932;2022-12-15T01:06:07;52688.97;;;-144.14;99.31
7075;BME280;3578;51.568;6.932;2022-12-15T01:08:52;52692.97;;;-144.14;99.23
7075;BME280;3578;51.568;6.932;2022-12-15T01:11:37;52664.94;;;-144.14;99.75
7075;BME280;3578;51.568;6.932;2022-12-15T01:14:22;52674.94;;;-144.14;100.00
7075;BME280;3578;51.568;6.932;2022-12-15T01:17:07;52656.91;;;-144.14;100.00
7075;BME280;3578;51.568;6.932;2022-12-15T01:19:51;52638.88;;;-144.14;100.00
7075;BME280;3578;51.568;6.932;2022-12-15T01:22:38;52652.91;;;-144.14;100.00
7075;BME280;3578;51.568;6.932;2022-12-15T01:25:07;52646.91;;;-144.14;100.00
7075;BME280;3578;51.568;6.932;2022-12-15T01:27:35;52628.84;;;-144.14;100.00
7075;BME280;3578;51.568;6.932;2022-12-15T01:30:05;52620.84;;;-144.14;100.00
7075;BME280;3578;51.568;6.932;2022-12-15T01:32:32;52668.94;;;-144.14;100.00
7075;BME280;3578;51.568;6.932;2022-12-15T01:34:59;52684.97;;;-144.14;100.00
7075;BME280;3578;51.568;6.932;2022-12-15T01:37:26;52648.91;;;-144.14;100.00
7075;BME280;3578;51.568;6.932;2022-12-15T01:39:55;52620.84;;;-144.14;100.00
7075;BME280;3578;51.568;6.932;2022-12-15T01:42:39;52632.88;;;-144.14;100.00
7075;BME280;3578;51.568;6.932;2022-12-15T01:45:46;52642.88;;;-144.14;100.00
7075;BME280;3578;51.568;6.932;2022-12-15T01:48:21;52628.84;;;-144.14;100.00
7075;BME280;3578;51.568;6.932;2022-12-15T01:51:03;52636.88;;;-144.14;100.00
7075;BME280;3578;51.568;6.932;2022-12-15T01:53:36;52642.88;;;-144.14;100.00
7075;BME280;3578;51.568;6.932;2022-12-15T01:56:08;52614.84;;;-144.14;100.00
7075;BME280;3578;51.568;6.932;2022-12-15T01:58:36;52608.81;;;-144.14;100.00
7075;BME280;3578;51.568;6.932;2022-12-15T02:01:05;52636.88;;;-144.14;100.00
7075;BME280;3578;51.568;6.932;2022-12-15T02:03:32;52650.91;;;-144.14;100.00
7075;BME280;3578;51.568;6.932;2022-12-15T02:06:00;52664.94;;;-144.14;100.00
7075;BME280;3578;51.568;6.932;2022-12-15T02:08:28;52672.94;;;-144.14;100.00
7075;BME280;3578;51.568;6.932;2022-12-15T02:11:19;52624.84;;;-144.14;100.00
7075;BME280;3578;51.568;6.932;2022-12-15T02:13:59;52672.94;;;-144.14;100.00
7075;BME280;3578;51.568;6.932;2022-12-15T02:16:41;52658.91;;;-144.14;100.00
7075;BME280;3578;51.568;6.932;2022-12-15T02:19:47;52646.91;;;-144.14;100.00
7075;BME280;3578;51.568;6.932;2022-12-15T02:22:29;52670.94;;;-144.14;100.00
7075;BME280;3578;51.568;6.932;2022-12-15T02:25:27;52620.84;;;-144.14;100.00
7075;BME280;3578;51.568;6.932;2022-12-15T02:28:01;52638.88;;;-144.14;100.00
7075;BME280;3578;51.568;6.932;2022-12-15T02:30:47;52656.91;;;-144.14;100.00
7075;BME280;3578;51.568;6.932;2022-12-15T02:33:42;52652.91;;;-144.14;100.00
7075;BME280;3578;51.568;6.932;2022-12-15T02:36:16;52640.88;;;-144.14;100.00
7075;BME280;3578;51.568;6.932;2022-12-15T02:38:48;52672.94;;;-144.14;100.00
7075;BME280;3578;51.568;6.932;2022-12-15T02:41:35;52662.91;;;-144.14;100.00
7075;BME280;3578;51.568;6.932;2022-12-15T02:44:08;52694.97;;;-144.14;99.52
7075;BME280;3578;51.568;6.932;2022-12-15T02:46:53;52711.00;;;-144.14;99.28
7075;BME280;3578;51.568;6.932;2022-12-15T02:49:32;52703.00;;;-144.14;98.84
7075;BME280;3578;51.568;6.932;2022-12-15T02:52:13;52753.09;;;-144.14;98.43
7075;BME280;3578;51.568;6.932;2022-12-15T02:55:00;52729.03;;;-144.14;97.98
7075;BME280;3578;51.568;6.932;2022-12-15T02:57:40;52753.09;;;-144.14;97.73
7075;BME280;3578;51.568;6.932;2022-12-15T03:00:11;52761.09;;;-144.14;97.59
7075;BME280;3578;51.568;6.932;2022-12-15T03:02:44;52729.03;;;-144.14;97.75
7075;BME280;3578;51.568;6.932;2022-12-15T03:05:13;52713.00;;;-144.14;98.90
7075;BME280;3578;51.568;6.932;2022-12-15T03:07:41;52688.97;;;-144.14;99.94
7075;BME280;3578;51.568;6.932;2022-12-15T03:10:12;52666.94;;;-144.14;100.00
7075;BME280;3578;51.568;6.932;2022-12-15T03:12:39;52662.91;;;-144.14;100.00
7075;BME280;3578;51.568;6.932;2022-12-15T03:15:07;52664.94;;;-144.14;100.00
7075;BME280;3578;51.568;6.932;2022-12-15T03:17:34;52658.91;;;-144.14;100.00
7075;BME280;3578;51.568;6.932;2022-12-15T03:20:05;52727.03;;;-144.14;100.00
7075;BME280;3578;51.568;6.932;2022-12-15T03:22:33;52664.94;;;-144.14;100.00
7075;BME280;3578;51.568;6.932;2022-12-15T03:25:00;52654.91;;;-144.14;100.00
7075;BME280;3578;51.568;6.932;2022-12-15T03:27:27;52721.03;;;-144.14;100.00
7075;BME280;3578;51.568;6.932;2022-12-15T03:29:54;52668.94;;;-144.14;100.00
7075;BME280;3578;51.568;6.932;2022-12-15T03:32:22;52713.00;;;-144.14;99.87
7075;BME280;3578;51.568;6.932;2022-12-15T03:34:49;52678.94;;;-144.14;99.53
7075;BME280;3578;51.568;6.932;2022-12-15T03:37:17;52676.94;;;-144.14;99.20
7075;BME280;3578;51.568;6.932;2022-12-15T03:39:44;52741.06;;;-144.14;99.03
7075;BME280;3578;51.568;6.932;2022-12-15T03:42:11;52719.03;;;-144.14;99.65
7075;BME280;3578;51.568;6.932;2022-12-15T03:44:38;52713.00;;;-144.14;100.00
7075;BME280;3578;51.568;6.932;2022-12-15T03:47:05;52658.91;;;-144.14;100.00
7075;BME280;3578;51.568;6.932;2022-12-15T03:49:32;52713.00;;;-144.14;99.99
7075;BME280;3578;51.568;6.932;2022-12-15T03:51:59;52701.00;;;-144.14;99.80
7075;BME280;3578;51.568;6.932;2022-12-15T03:54:27;52731.06;;;-144.14;99.51
7075;BME280;3578;51.568;6.932;2022-12-15T03:56:54;52688.97;;;-144.14;99.40
7075;BME280;3578;51.568;6.932;2022-12-15T03:59:21;52686.97;;;-144.14;99.57
7075;BME280;3578;51.568;6.932;2022-12-15T04:01:48;52676.94;;;-144.14;99.92
7075;BME280;3578;51.568;6.932;2022-12-15T04:04:15;52686.97;;;-144.14;100.00
7075;BME280;3578;51.568;6.932;2022-12-15T04:06:42;52692.97;;;-144.14;100.00
7075;BME280;3578;51.568;6.932;2022-12-15T04:09:09;52690.97;;;-144.14;100.00
7075;BME280;3578;51.568;6.932;2022-12-15T04:11:37;52652.91;;;-144.14;100.00
7075;BME280;3578;51.568;6.932;2022-12-15T04:14:04;52692.97;;;-144.14;100.00
7075;BME280;3578;51.568;6.932;2022-12-15T04:16:31;52668.94;;;-144.14;100.00
7075;BME280;3578;51.568;6.932;2022-12-15T04:18:58;52725.03;;;-144.14;100.00
7075;BME280;3578;51.568;6.932;2022-12-15T04:21:42;52692.97;;;-144.14;99.82
7075;BME280;3578;51.568;6.932;2022-12-15T04:24:09;52664.94;;;-144.14;100.00
7075;BME280;3578;51.568;6.932;2022-12-15T04:26:55;52703.00;;;-144.14;99.86
7075;BME280;3578;51.568;6.932;2022-12-15T04:29:40;52686.97;;;-144.14;100.00
7075;BME280;3578;51.568;6.932;2022-12-15T04:32:24;52652.91;;;-144.14;100.00
7075;BME280;3578;51.568;6.932;2022-12-15T04:35:10;52676.94;;;-144.14;100.00
7075;BME280;3578;51.568;6.932;2022-12-15T04:37:55;52656.91;;;-144.14;100.00
7075;BME280;3578;51.568;6.932;2022-12-15T04:40:40;52652.91;;;-144.14;100.00
7075;BME280;3578;51.568;6.932;2022-12-15T04:43:25;52707.00;;;-144.14;100.00
7075;BME280;3578;51.568;6.932;2022-12-15T04:46:09;52632.88;;;-144.14;100.00
7075;BME280;3578;51.568;6.932;2022-12-15T04:48:54;52662.91;;;-144.14;100.00
7075;BME280;3578;51.568;6.932;2022-12-15T04:51:39;52692.97;;;-144.14;100.00
7075;BME280;3578;51.568;6.932;2022-12-15T04:54:23;52684.97;;;-144.14;99.83
7075;BME280;3578;51.568;6.932;2022-12-15T04:57:08;52672.94;;;-144.14;99.84
7075;BME280;3578;51.568;6.932;2022-12-15T04:59:56;52680.97;;;-144.14;99.77
7075;BME280;3578;51.568;6.932;2022-12-15T05:02:40;52713.00;;;-144.14;99.92
7075;BME280;3578;51.568;6.932;2022-12-15T05:05:25;52692.97;;;-144.14;100.00
7075;BME280;3578;51.568;6.932;2022-12-15T05:08:10;52692.97;;;-144.14;100.00
7075;BME280;3578;51.568;6.932;2022-12-15T05:10:54;52703.00;;;-144.14;100.00
7075;BME280;3578;51.568;6.932;2022-12-15T05:13:42;52660.91;;;-144.14;100.00
7075;BME280;3578;51.568;6.932;2022-12-15T05:16:28;52721.03;;;-144.14;100.00
7075;BME280;3578;51.568;6.932;2022-12-15T05:19:12;52713.00;;;-144.14;99.83
7075;BME280;3578;51.568;6.932;2022-12-15T05:21:57;52717.03;;;-144.14;99.71
7075;BME280;3578;51.568;6.932;2022-12-15T05:24:41;52692.97;;;-144.14;99.92
7075;BME280;3578;51.568;6.932;2022-12-15T05:27:26;52692.97;;;-144.14;99.88
7075;BME280;3578;51.568;6.932;2022-12-15T05:30:11;52692.97;;;-144.14;99.67
7075;BME280;3578;51.568;6.932;2022-12-15T05:32:56;52735.06;;;-144.14;99.71
7075;BME280;3578;51.568;6.932;2022-12-15T05:35:23;52733.06;;;-144.14;99.61
7075;BME280;3578;51.568;6.932;2022-12-15T05:37:50;52705.00;;;-144.14;99.68
7075;BME280;3578;51.568;6.932;2022-12-15T05:40:18;52690.97;;;-144.14;99.61
7075;BME280;3578;51.568;6.932;2022-12-15T05:42:45;52705.00;;;-144.14;99.60
7075;BME280;3578;51.568;6.932;2022-12-15T05:45:11;52725.03;;;-144.14;99.59
7075;BME280;3578;51.568;6.932;2022-12-15T05:47:38;52692.97;;;-144.14;99.68
7075;BME280;3578;51.568;6.932;2022-12-15T05:50:09;52709.00;;;-144.14;99.60
7075;BME280;3578;51.568;6.932;2022-12-15T05:52:36;52741.06;;;-144.14;99.70
7075;BME280;3578;51.568;6.932;2022-12-15T05:55:03;52741.06;;;-144.14;99.67
7075;BME280;3578;51.568;6.932;2022-12-15T05:57:30;52709.00;;;-144.14;99.41
7075;BME280;3578;51.568;6.932;2022-12-15T05:59:57;52709.00;;;-144.14;99.72
7075;BME280;3578;51.568;6.932;2022-12-15T06:02:24;52705.00;;;-144.14;99.70
7075;BME280;3578;51.568;6.932;2022-12-15T06:04:51;52713.00;;;-144.14;99.67
7075;BME280;3578;51.568;6.932;2022-12-15T06:07:19;52749.09;;;-144.14;99.67
7075;BME280;3578;51.568;6.932;2022-12-15T06:09:46;52705.00;;;-144.14;99.68
7075;BME280;3578;51.568;6.932;2022-12-15T06:12:13;52692.97;;;-144.14;99.86
7075;BME280;3578;51.568;6.932;2022-12-15T06:14:41;52733.06;;;-144.14;99.65
7075;BME280;3578;51.568;6.932;2022-12-15T06:17:08;52761.09;;;-144.14;99.66
7075;BME280;3578;51.568;6.932;2022-12-15T06:19:35;52721.03;;;-144.14;99.71
7075;BME280;3578;51.568;6.932;2022-12-15T06:22:02;52701.00;;;-144.14;99.95
7075;BME280;3578;51.568;6.932;2022-12-15T06:24:30;52699.00;;;-144.14;100.00
7075;BME280;3578;51.568;6.932;2022-12-15T06:26:57;52703.00;;;-144.14;100.00
7075;BME280;3578;51.568;6.932;2022-12-15T06:29:24;52705.00;;;-144.14;100.00
7075;BME280;3578;51.568;6.932;2022-12-15T06:31:51;52705.00;;;-144.14;100.00
7075;BME280;3578;51.568;6.932;2022-12-15T06:34:18;52662.91;;;-144.14;100.00
7075;BME280;3578;51.568;6.932;2022-12-15T06:36:46;52676.94;;;-144.14;100.00
7075;BME280;3578;51.568;6.932;2022-12-15T06:39:14;52684.97;;;-144.14;100.00
7075;BME280;3578;51.568;6.932;2022-12-15T06:41:43;52676.94;;;-144.14;100.00
7075;BME280;3578;51.568;6.932;2022-12-15T06:44:13;52676.94;;;-144.14;100.00
7075;BME280;3578;51.568;6.932;2022-12-15T06:46:41;52705.00;;;-144.14;100.00
7075;BME280;3578;51.568;6.932;2022-12-15T06:49:10;52678.94;;;-144.14;100.00
7075;BME280;3578;51.568;6.932;2022-12-15T06:51:37;52676.94;;;-144.14;100.00
7075;BME280;3578;51.568;6.932;2022-12-15T06:54:04;52737.06;;;-144.14;100.00
7075;BME280;3578;51.568;6.932;2022-12-15T06:56:33;52684.97;;;-144.14;100.00
7075;BME280;3578;51.568;6.932;2022-12-15T06:59:04;52703.00;;;-144.14;100.00
7075;BME280;3578;51.568;6.932;2022-12-15T07:01:32;52723.03;;;-144.14;100.00
7075;BME280;3578;51.568;6.932;2022-12-15T07:04:00;52676.94;;;-144.14;100.00
7075;BME280;3578;51.568;6.932;2022-12-15T07:06:32;52713.00;;;-144.14;100.00
7075;BME280;3578;51.568;6.932;2022-12-15T07:09:00;52672.94;;;-144.14;100.00
7075;BME280;3578;51.568;6.932;2022-12-15T07:11:27;52686.97;;;-144.14;100.00
7075;BME280;3578;51.568;6.932;2022-12-15T07:13:55;52662.91;;;-144.14;100.00
7075;BME280;3578;51.568;6.932;2022-12-15T07:16:23;52684.97;;;-144.14;100.00
7075;BME280;3578;51.568;6.932;2022-12-15T07:18:50;52664.94;;;-144.14;100.00
7075;BME280;3578;51.568;6.932;2022-12-15T07:21:18;52688.97;;;-144.14;100.00
7075;BME280;3578;51.568;6.932;2022-12-15T07:23:45;52707.00;;;-144.14;100.00
7075;BME280;3578;51.568;6.932;2022-12-15T07:26:12;52697.00;;;-144.14;100.00
7075;BME280;3578;51.568;6.932;2022-12-15T07:28:39;52676.94;;;-144.14;100.00
7075;BME280;3578;51.568;6.932;2022-12-15T07:31:08;52676.94;;;-144.14;100.00
7075;BME280;3578;51.568;6.932;2022-12-15T07:33:37;52666.94;;;-144.14;100.00
7075;BME280;3578;51.568;6.932;2022-12-15T07:36:05;52684.97;;;-144.14;100.00
7075;BME280;3578;51.568;6.932;2022-12-15T07:38:33;52652.91;;;-144.14;100.00
7075;BME280;3578;51.568;6.932;2022-12-15T07:41:01;52684.97;;;-144.14;100.00
7075;BME280;3578;51.568;6.932;2022-12-15T07:43:29;52674.94;;;-144.14;100.00
7075;BME280;3578;51.568;6.932;2022-12-15T07:45:57;52684.97;;;-144.14;100.00
7075;BME280;3578;51.568;6.932;2022-12-15T07:48:24;52654.91;;;-144.14;100.00
7075;BME280;3578;51.568;6.932;2022-12-15T07:50:53;52672.94;;;-144.14;100.00
7075;BME280;3578;51.568;6.932;2022-12-15T07:53:24;52644.88;;;-144.14;100.00
7075;BME280;3578;51.568;6.932;2022-12-15T07:55:55;52690.97;;;-144.14;100.00
7075;BME280;3578;51.568;6.932;2022-12-15T07:58:23;52711.00;;;-144.14;100.00
7075;BME280;3578;51.568;6.932;2022-12-15T08:00:51;52678.94;;;-144.14;100.00
7075;BME280;3578;51.568;6.932;2022-12-15T08:03:18;52664.94;;;-144.14;100.00
7075;BME280;3578;51.568;6.932;2022-12-15T08:05:45;52713.00;;;-144.14;100.00
7075;BME280;3578;51.568;6.932;2022-12-15T08:08:13;52674.94;;;-144.14;100.00
7075;BME280;3578;51.568;6.932;2022-12-15T08:10:40;52694.97;;;-144.14;100.00
7075;BME280;3578;51.568;6.932;2022-12-15T08:13:07;52701.00;;;-144.14;100.00
7075;BME280;3578;51.568;6.932;2022-12-15T08:15:35;52709.00;;;-144.14;100.00
7075;BME280;3578;51.568;6.932;2022-12-15T08:18:03;52676.94;;;-144.14;100.00
7075;BME280;3578;51.568;6.932;2022-12-15T08:20:30;52697.00;;;-144.14;100.00
7075;BME280;3578;51.568;6.932;2022-12-15T08:22:58;52733.06;;;-144.14;100.00
7075;BME280;3578;51.568;6.932;2022-12-15T08:25:26;52711.00;;;-144.14;100.00
7075;BME280;3578;51.568;6.932;2022-12-15T08:27:54;52684.97;;;-144.14;100.00
7075;BME280;3578;51.568;6.932;2022-12-15T08:30:22;52705.00;;;-144.14;100.00
7075;BME280;3578;51.568;6.932;2022-12-15T08:32:50;52731.06;;;-144.14;100.00
7075;BME280;3578;51.568;6.932;2022-12-15T08:35:17;52719.03;;;-144.14;100.00
7075;BME280;3578;51.568;6.932;2022-12-15T08:37:44;52713.00;;;-144.14;100.00
7075;BME280;3578;51.568;6.932;2022-12-15T08:40:12;52733.06;;;-144.14;100.00
7075;BME280;3578;51.568;6.932;2022-12-15T08:42:40;52697.00;;;-144.14;100.00
7075;BME280;3578;51.568;6.932;2022-12-15T08:45:08;52711.00;;;-144.14;100.00
7075;BME280;3578;51.568;6.932;2022-12-15T08:47:37;52737.06;;;-144.14;100.00
7075;BME280;3578;51.568;6.932;2022-12-15T08:50:05;52713.00;;;-144.14;100.00
7075;BME280;3578;51.568;6.932;2022-12-15T08:52:32;52755.09;;;-144.14;100.00
7075;BME280;3578;51.568;6.932;2022-12-15T08:54:59;52743.06;;;-144.14;100.00
7075;BME280;3578;51.568;6.932;2022-12-15T08:57:26;52709.00;;;-144.14;100.00
7075;BME280;3578;51.568;6.932;2022-12-15T08:59:55;52721.03;;;-144.14;100.00
7075;BME280;3578;51.568;6.932;2022-12-15T09:02:22;52741.06;;;-144.14;100.00
7075;BME280;3578;51.568;6.932;2022-12-15T09:04:49;52737.06;;;-144.14;100.00
7075;BME280;3578;51.568;6.932;2022-12-15T09:07:16;52694.97;;;-144.14;100.00
7075;BME280;3578;51.568;6.932;2022-12-15T09:09:43;52680.97;;;-144.14;100.00
7075;BME280;3578;51.568;6.932;2022-12-15T09:12:11;52711.00;;;-144.14;100.00
7075;BME280;3578;51.568;6.932;2022-12-15T09:14:38;52787.16;;;-144.14;100.00
7075;BME280;3578;51.568;6.932;2022-12-15T09:17:07;52725.03;;;-144.14;100.00
7075;BME280;3578;51.568;6.932;2022-12-15T09:19:34;52749.09;;;-144.14;100.00
7075;BME280;3578;51.568;6.932;2022-12-15T09:22:01;52749.09;;;-144.14;100.00
7075;BME280;3578;51.568;6.932;2022-12-15T09:24:30;52737.06;;;-144.14;100.00
7075;BME280;3578;51.568;6.932;2022-12-15T09:26:57;52753.09;;;-144.14;100.00
7075;BME280;3578;51.568;6.932;2022-12-15T09:29:23;52777.13;;;-144.14;100.00
7075;BME280;3578;51.568;6.932;2022-12-15T09:31:50;52765.13;;;-144.14;100.00
7075;BME280;3578;51.568;6.932;2022-12-15T09:34:19;52707.00;;;-144.14;100.00
7075;BME280;3578;51.568;6.932;2022-12-15T09:36:46;52749.09;;;-144.14;100.00
7075;BME280;3578;51.568;6.932;2022-12-15T09:39:13;52761.09;;;-144.14;100.00
7075;BME280;3578;51.568;6.932;2022-12-15T09:41:48;52769.13;;;-144.14;100.00
7075;BME280;3578;51.568;6.932;2022-12-15T09:44:19;52771.13;;;-144.14;100.00
7075;BME280;3578;51.568;6.932;2022-12-15T09:47:09;52769.13;;;-144.14;100.00
7075;BME280;3578;51.568;6.932;2022-12-15T09:49:53;52777.13;;;-144.14;100.00
7075;BME280;3578;51.568;6.932;2022-12-15T09:52:25;52769.13;;;-144.14;100.00
7075;BME280;3578;51.568;6.932;2022-12-15T09:54:53;52781.16;;;-144.14;100.00
7075;BME280;3578;51.568;6.932;2022-12-15T09:57:35;52783.16;;;-144.14;100.00
7075;BME280;3578;51.568;6.932;2022-12-15T10:00:15;52761.09;;;-144.14;100.00
7075;BME280;3578;51.568;6.932;2022-12-15T10:03:31;52835.25;;;-144.14;99.86
7075;BME280;3578;51.568;6.932;2022-12-15T10:06:10;52777.13;;;-144.14;99.44
7075;BME280;3578;51.568;6.932;2022-12-15T10:08:41;52815.22;;;-144.14;99.17
7075;BME280;3578;51.568;6.932;2022-12-15T10:11:27;52793.16;;;-144.14;99.23
7075;BME280;3578;51.568;6.932;2022-12-15T10:14:05;52807.19;;;-144.14;99.26
7075;BME280;3578;51.568;6.932;2022-12-15T10:16:43;52819.22;;;-144.14;99.28
7075;BME280;3578;51.568;6.932;2022-12-15T10:19:18;52861.31;;;-144.14;98.66
7075;BME280;3578;51.568;6.932;2022-12-15T10:21:49;52841.25;;;-144.14;98.47
7075;BME280;3578;51.568;6.932;2022-12-15T10:24:19;52833.25;;;-144.14;98.59
7075;BME280;3578;51.568;6.932;2022-12-15T10:30:16;52843.25;;;-144.14;99.13
7075;BME280;3578;51.568;6.932;2022-12-15T10:32:49;52817.22;;;-144.14;99.47
7075;BME280;3578;51.568;6.932;2022-12-15T10:35:20;52805.19;;;-144.14;99.41
7075;BME280;3578;51.568;6.932;2022-12-15T10:37:49;52821.22;;;-144.14;98.85
7075;BME280;3578;51.568;6.932;2022-12-15T10:40:40;52837.25;;;-144.14;98.87
7075;BME280;3578;51.568;6.932;2022-12-15T10:43:12;52833.25;;;-144.14;98.74
7075;BME280;3578;51.568;6.932;2022-12-15T10:45:40;52847.28;;;-144.14;98.75
7075;BME280;3578;51.568;6.932;2022-12-15T10:48:18;52813.22;;;-144.14;99.04
7075;BME280;3578;51.568;6.932;2022-12-15T10:50:45;52833.25;;;-144.14;99.55
7075;BME280;3578;51.568;6.932;2022-12-15T10:53:38;52829.25;;;-144.14;99.02
7075;BME280;3578;51.568;6.932;2022-12-15T10:56:06;52839.25;;;-144.14;98.80
7075;BME280;3578;51.568;6.932;2022-12-15T10:58:46;52877.34;;;-144.14;98.80
7075;BME280;3578;51.568;6.932;2022-12-15T11:01:18;52843.25;;;-144.14;98.93
7075;BME280;3578;51.568;6.932;2022-12-15T11:03:45;52831.25;;;-144.14;99.34
7075;BME280;3578;51.568;6.932;2022-12-15T11:06:18;52823.22;;;-144.14;99.58
7075;BME280;3578;51.568;6.932;2022-12-15T11:08:49;52845.28;;;-144.14;99.65
7075;BME280;3578;51.568;6.932;2022-12-15T11:11:29;52801.19;;;-144.14;100.00
7075;BME280;3578;51.568;6.932;2022-12-15T11:14:18;52795.16;;;-144.14;100.00
7075;BME280;3578;51.568;6.932;2022-12-15T11:16:51;52817.22;;;-144.14;99.66
7075;BME280;3578;51.568;6.932;2022-12-15T11:19:32;52865.31;;;-144.14;97.97
7075;BME280;3578;51.568;6.932;2022-12-15T11:22:07;52885.34;;;-144.14;97.47
7075;BME280;3578;51.568;6.932;2022-12-15T11:24:43;52909.41;;;-144.14;97.75
7075;BME280;3578;51.568;6.932;2022-12-15T11:27:20;52911.41;;;-144.14;97.83
7075;BME280;3578;51.568;6.932;2022-12-15T11:30:00;52871.31;;;-144.14;98.10
7075;BME280;3578;51.568;6.932;2022-12-15T11:32:32;52887.34;;;-144.14;98.53
7075;BME280;3578;51.568;6.932;2022-12-15T11:35:00;52871.31;;;-144.14;99.17
7075;BME280;3578;51.568;6.932;2022-12-15T11:37:40;52865.31;;;-144.14;97.86
7075;BME280;3578;51.568;6.932;2022-12-15T11:40:33;52909.41;;;-144.14;97.04
7075;BME280;3578;51.568;6.932;2022-12-15T11:46:21;52929.44;;;-144.14;98.23
7075;BME280;3578;51.568;6.932;2022-12-15T11:49:19;52895.38;;;-144.14;97.92
7075;BME280;3578;51.568;6.932;2022-12-15T11:52:00;52943.47;;;-144.14;96.15
7075;BME280;3578;51.568;6.932;2022-12-15T11:54:34;52943.47;;;-144.14;95.32
7075;BME280;3578;51.568;6.932;2022-12-15T11:57:24;52977.53;;;-144.14;93.99
7075;BME280;3578;51.568;6.932;2022-12-15T12:00:03;52961.50;;;-144.14;95.04
7075;BME280;3578;51.568;6.932;2022-12-15T12:02:54;52937.44;;;-144.14;95.28
7075;BME280;3578;51.568;6.932;2022-12-15T12:05:41;52963.50;;;-144.14;95.04
7075;BME280;3578;51.568;6.932;2022-12-15T12:08:29;52961.50;;;-144.14;95.58
7075;BME280;3578;51.568;6.932;2022-12-15T12:11:07;52949.47;;;-144.14;96.16
7075;BME280;3578;51.568;6.932;2022-12-15T12:13:52;52907.38;;;-144.14;96.11
7075;BME280;3578;51.568;6.932;2022-12-15T12:16:33;52953.47;;;-144.14;95.59
7075;BME280;3578;51.568;6.932;2022-12-15T12:19:09;52955.47;;;-144.14;96.13
7075;BME280;3578;51.568;6.932;2022-12-15T12:21:41;52935.44;;;-144.14;96.75
7075;BME280;3578;51.568;6.932;2022-12-15T12:24:15;52959.50;;;-144.14;97.31
7075;BME280;3578;51.568;6.932;2022-12-15T12:26:46;52933.44;;;-144.14;97.52
7075;BME280;3578;51.568;6.932;2022-12-15T12:29:21;52967.50;;;-144.14;96.17
7075;BME280;3578;51.568;6.932;2022-12-15T12:32:00;52931.44;;;-144.14;96.62
7075;BME280;3578;51.568;6.932;2022-12-15T12:34:34;52913.41;;;-144.14;96.55
7075;BME280;3578;51.568;6.932;2022-12-15T12:37:15;52931.44;;;-144.14;96.92
7075;BME280;3578;51.568;6.932;2022-12-15T12:39:47;52921.41;;;-144.14;96.34
7075;BME280;3578;51.568;6.932;2022-12-15T12:42:19;52937.44;;;-144.14;96.94
7075;BME280;3578;51.568;6.932;2022-12-15T12:44:51;52897.38;;;-144.14;97.61
7075;BME280;3578;51.568;6.932;2022-12-15T12:47:23;52883.34;;;-144.14;98.82
7075;BME280;3578;51.568;6.932;2022-12-15T12:49:57;52905.38;;;-144.14;98.99
7075;BME280;3578;51.568;6.932;2022-12-15T12:52:28;52889.34;;;-144.14;98.89
7075;BME280;3578;51.568;6.932;2022-12-15T12:54:58;52903.38;;;-144.14;97.84
7075;BME280;3578;51.568;6.932;2022-12-15T12:57:35;52949.47;;;-144.14;96.33
7075;BME280;3578;51.568;6.932;2022-12-15T13:00:24;52967.50;;;-144.14;96.62
7075;BME280;3578;51.568;6.932;2022-12-15T13:03:16;52909.41;;;-144.14;98.00
7075;BME280;3578;51.568;6.932;2022-12-15T13:05:49;52909.41;;;-144.14;98.04
7075;BME280;3578;51.568;6.932;2022-12-15T13:08:48;52899.38;;;-144.14;97.65
7075;BME280;3578;51.568;6.932;2022-12-15T13:11:55;52887.34;;;-144.14;98.56
7075;BME280;3578;51.568;6.932;2022-12-15T13:14:46;52943.47;;;-144.14;96.34
7075;BME280;3578;51.568;6.932;2022-12-15T13:17:28;52969.50;;;-144.14;95.47
7075;BME280;3578;51.568;6.932;2022-12-15T13:20:27;52965.50;;;-144.14;94.54
7075;BME280;3578;51.568;6.932;2022-12-15T13:26:12;52935.44;;;-144.14;95.79
7075;BME280;3578;51.568;6.932;2022-12-15T13:28:47;52951.47;;;-144.14;96.65
7075;BME280;3578;51.568;6.932;2022-12-15T13:31:26;52949.47;;;-144.14;96.14
7075;BME280;3578;51.568;6.932;2022-12-15T13:34:21;52945.47;;;-144.14;96.49
7075;BME280;3578;51.568;6.932;2022-12-15T13:37:01;52979.53;;;-144.14;95.54
7075;BME280;3578;51.568;6.932;2022-12-15T13:39:55;52971.50;;;-144.14;96.21
7075;BME280;3578;51.568;6.932;2022-12-15T13:42:34;52947.47;;;-144.14;95.66
7075;BME280;3578;51.568;6.932;2022-12-15T13:45:45;52959.50;;;-144.14;96.06